sensor_id;sensor_type;location;lat;lon;timestamp;P1;durP1;ratioP1;P2;durP2;ratioP2
6979;SDS011;3530;52.832;10.680;2022-12-29T00:01:21;13.80;;;7.30;;
6979;SDS011;3530;52.832;10.680;2022-12-29T00:04:07;9.05;;;6.38;;
6979;SDS011;3530;52.832;10.680;2022-12-29T00:06:55;5.97;;;4.35;;
6979;SDS011;3530;52.832;10.680;2022-12-29T00:09:41;9.48;;;6.20;;
6979;SDS011;3530;52.832;10.680;2022-12-29T00:12:26;3.47;;;3.17;;
6979;SDS011;3530;52.832;10.680;2022-12-29T00:15:32;3.47;;;2.70;;
6979;SDS011;3530;52.832;10.680;2022-12-29T00:18:24;3.45;;;3.25;;
6979;SDS011;3530;52.832;10.680;2022-12-29T00:21:17;3.55;;;3.35;;
6979;SDS011;3530;52.832;10.680;2022-12-29T00:24:22;5.13;;;2.90;;
6979;SDS011;3530;52.832;10.680;2022-12-29T00:27:11;5.55;;;5.15;;
6979;SDS011;3530;52.832;10.680;2022-12-29T00:30:20;4.05;;;3.08;;
6979;SDS011;3530;52.832;10.680;2022-12-29T00:33:26;5.50;;;3.28;;
6979;SDS011;3530;52.832;10.680;2022-12-29T00:36:36;2.95;;;2.42;;
6979;SDS011;3530;52.832;10.680;2022-12-29T00:39:23;2.55;;;2.45;;
6979;SDS011;3530;52.832;10.680;2022-12-29T00:42:28;4.25;;;3.88;;
6979;SDS011;3530;52.832;10.680;2022-12-29T00:45:32;3.58;;;3.28;;
6979;SDS011;3530;52.832;10.680;2022-12-29T00:48:18;3.00;;;2.80;;
6979;SDS011;3530;52.832;10.680;2022-12-29T00:51:22;3.63;;;3.42;;
6979;SDS011;3530;52.832;10.680;2022-12-29T00:54:07;3.25;;;3.05;;
6979;SDS011;3530;52.832;10.680;2022-12-29T00:56:53;4.65;;;3.25;;
6979;SDS011;3530;52.832;10.680;2022-12-29T00:59:40;4.28;;;2.40;;
6979;SDS011;3530;52.832;10.680;2022-12-29T01:02:26;5.50;;;4.65;;
6979;SDS011;3530;52.832;10.680;2022-12-29T01:05:13;3.15;;;2.95;;
6979;SDS011;3530;52.832;10.680;2022-12-29T01:07:59;2.90;;;2.70;;
6979;SDS011;3530;52.832;10.680;2022-12-29T01:10:44;2.67;;;2.58;;
6979;SDS011;3530;52.832;10.680;2022-12-29T01:13:30;4.82;;;2.70;;
6979;SDS011;3530;52.832;10.680;2022-12-29T01:16:16;2.90;;;2.65;;
6979;SDS011;3530;52.832;10.680;2022-12-29T01:19:02;2.40;;;2.30;;
6979;SDS011;3530;52.832;10.680;2022-12-29T01:21:48;2.60;;;2.40;;
6979;SDS011;3530;52.832;10.680;2022-12-29T01:24:34;2.47;;;2.35;;
6979;SDS011;3530;52.832;10.680;2022-12-29T01:27:20;2.55;;;2.45;;
6979;SDS011;3530;52.832;10.680;2022-12-29T01:30:05;2.97;;;2.78;;
6979;SDS011;3530;52.832;10.680;2022-12-29T01:32:51;3.45;;;2.30;;
6979;SDS011;3530;52.832;10.680;2022-12-29T01:35:37;2.67;;;2.47;;
6979;SDS011;3530;52.832;10.680;2022-12-29T01:38:22;2.78;;;2.65;;
6979;SDS011;3530;52.832;10.680;2022-12-29T01:41:09;2.50;;;2.30;;
6979;SDS011;3530;52.832;10.680;2022-12-29T01:43:57;2.60;;;2.50;;
6979;SDS011;3530;52.832;10.680;2022-12-29T01:46:47;4.13;;;2.65;;
6979;SDS011;3530;52.832;10.680;2022-12-29T01:49:33;2.30;;;2.20;;
6979;SDS011;3530;52.832;10.680;2022-12-29T01:52:19;2.58;;;2.47;;
6979;SDS011;3530;52.832;10.680;2022-12-29T01:55:05;5.15;;;2.35;;
6979;SDS011;3530;52.832;10.680;2022-12-29T01:57:52;2.80;;;2.33;;
6979;SDS011;3530;52.832;10.680;2022-12-29T02:00:39;2.28;;;2.17;;
6979;SDS011;3530;52.832;10.680;2022-12-29T02:03:25;2.10;;;2.00;;
6979;SDS011;3530;52.832;10.680;2022-12-29T02:06:13;2.20;;;2.10;;
6979;SDS011;3530;52.832;10.680;2022-12-29T02:09:01;2.40;;;2.20;;
6979;SDS011;3530;52.832;10.680;2022-12-29T02:11:47;2.35;;;2.15;;
6979;SDS011;3530;52.832;10.680;2022-12-29T02:14:33;2.10;;;2.00;;
6979;SDS011;3530;52.832;10.680;2022-12-29T02:17:26;2.20;;;2.10;;
6979;SDS011;3530;52.832;10.680;2022-12-29T02:20:35;2.30;;;2.20;;
6979;SDS011;3530;52.832;10.680;2022-12-29T02:23:51;2.00;;;1.90;;
6979;SDS011;3530;52.832;10.680;2022-12-29T02:26:48;2.42;;;2.22;;
6979;SDS011;3530;52.832;10.680;2022-12-29T02:39:26;2.10;;;2.00;;
6979;SDS011;3530;52.832;10.680;2022-12-29T02:42:40;2.00;;;1.90;;
6979;SDS011;3530;52.832;10.680;2022-12-29T02:45:58;2.35;;;2.25;;
6979;SDS011;3530;52.832;10.680;2022-12-29T02:48:49;2.35;;;2.15;;
6979;SDS011;3530;52.832;10.680;2022-12-29T02:54:50;2.40;;;2.30;;
6979;SDS011;3530;52.832;10.680;2022-12-29T02:57:38;2.10;;;2.00;;
6979;SDS011;3530;52.832;10.680;2022-12-29T03:00:24;2.72;;;2.03;;
6979;SDS011;3530;52.832;10.680;2022-12-29T03:03:14;2.15;;;2.05;;
6979;SDS011;3530;52.832;10.680;2022-12-29T03:06:15;2.33;;;2.22;;
6979;SDS011;3530;52.832;10.680;2022-12-29T03:12:31;2.00;;;1.90;;
6979;SDS011;3530;52.832;10.680;2022-12-29T03:15:42;2.50;;;2.30;;
6979;SDS011;3530;52.832;10.680;2022-12-29T03:18:50;2.00;;;1.90;;
6979;SDS011;3530;52.832;10.680;2022-12-29T03:21:43;3.10;;;2.08;;
6979;SDS011;3530;52.832;10.680;2022-12-29T03:24:50;2.63;;;1.90;;
6979;SDS011;3530;52.832;10.680;2022-12-29T03:28:22;2.10;;;2.03;;
6979;SDS011;3530;52.832;10.680;2022-12-29T03:31:04;2.15;;;1.90;;
6979;SDS011;3530;52.832;10.680;2022-12-29T03:33:52;2.17;;;2.10;;
6979;SDS011;3530;52.832;10.680;2022-12-29T03:36:40;3.83;;;2.67;;
6979;SDS011;3530;52.832;10.680;2022-12-29T03:39:29;2.25;;;2.15;;
6979;SDS011;3530;52.832;10.680;2022-12-29T03:42:19;2.00;;;1.90;;
6979;SDS011;3530;52.832;10.680;2022-12-29T03:45:05;2.20;;;2.10;;
6979;SDS011;3530;52.832;10.680;2022-12-29T03:47:52;2.13;;;2.03;;
6979;SDS011;3530;52.832;10.680;2022-12-29T03:50:38;2.20;;;2.10;;
6979;SDS011;3530;52.832;10.680;2022-12-29T03:53:24;2.08;;;1.98;;
6979;SDS011;3530;52.832;10.680;2022-12-29T03:56:09;2.28;;;2.10;;
6979;SDS011;3530;52.832;10.680;2022-12-29T03:58:55;2.78;;;2.30;;
6979;SDS011;3530;52.832;10.680;2022-12-29T04:01:40;3.55;;;2.72;;
6979;SDS011;3530;52.832;10.680;2022-12-29T04:04:26;2.90;;;2.70;;
6979;SDS011;3530;52.832;10.680;2022-12-29T04:07:12;2.20;;;2.10;;
6979;SDS011;3530;52.832;10.680;2022-12-29T04:09:58;2.42;;;2.33;;
6979;SDS011;3530;52.832;10.680;2022-12-29T04:12:43;2.15;;;1.95;;
6979;SDS011;3530;52.832;10.680;2022-12-29T04:15:31;3.47;;;2.38;;
6979;SDS011;3530;52.832;10.680;2022-12-29T04:18:16;3.28;;;2.58;;
6979;SDS011;3530;52.832;10.680;2022-12-29T04:21:02;2.28;;;2.17;;
6979;SDS011;3530;52.832;10.680;2022-12-29T04:23:48;2.40;;;2.30;;
6979;SDS011;3530;52.832;10.680;2022-12-29T04:26:34;2.13;;;2.13;;
6979;SDS011;3530;52.832;10.680;2022-12-29T04:29:20;2.60;;;2.15;;
6979;SDS011;3530;52.832;10.680;2022-12-29T04:32:05;2.85;;;2.15;;
6979;SDS011;3530;52.832;10.680;2022-12-29T04:34:51;2.65;;;2.30;;
6979;SDS011;3530;52.832;10.680;2022-12-29T04:37:37;1.85;;;1.85;;
6979;SDS011;3530;52.832;10.680;2022-12-29T04:40:22;3.75;;;2.35;;
6979;SDS011;3530;52.832;10.680;2022-12-29T04:43:09;2.25;;;2.15;;
6979;SDS011;3530;52.832;10.680;2022-12-29T04:45:55;4.13;;;2.35;;
6979;SDS011;3530;52.832;10.680;2022-12-29T04:48:40;2.28;;;2.17;;
6979;SDS011;3530;52.832;10.680;2022-12-29T04:51:26;2.00;;;1.95;;
6979;SDS011;3530;52.832;10.680;2022-12-29T04:54:12;2.13;;;2.03;;
6979;SDS011;3530;52.832;10.680;2022-12-29T04:56:57;2.50;;;2.30;;
6979;SDS011;3530;52.832;10.680;2022-12-29T04:59:43;2.22;;;2.00;;
6979;SDS011;3530;52.832;10.680;2022-12-29T05:02:29;2.10;;;1.95;;
6979;SDS011;3530;52.832;10.680;2022-12-29T05:05:14;2.03;;;1.98;;
6979;SDS011;3530;52.832;10.680;2022-12-29T05:08:00;2.40;;;2.20;;
6979;SDS011;3530;52.832;10.680;2022-12-29T05:10:46;2.20;;;2.10;;
6979;SDS011;3530;52.832;10.680;2022-12-29T05:13:32;1.98;;;1.92;;
6979;SDS011;3530;52.832;10.680;2022-12-29T05:16:17;2.25;;;2.15;;
6979;SDS011;3530;52.832;10.680;2022-12-29T05:19:03;1.70;;;1.70;;
6979;SDS011;3530;52.832;10.680;2022-12-29T05:21:48;1.77;;;1.75;;
6979;SDS011;3530;52.832;10.680;2022-12-29T05:24:34;1.95;;;1.85;;
6979;SDS011;3530;52.832;10.680;2022-12-29T05:27:20;2.45;;;1.98;;
6979;SDS011;3530;52.832;10.680;2022-12-29T05:30:05;1.92;;;1.88;;
6979;SDS011;3530;52.832;10.680;2022-12-29T05:32:51;2.03;;;1.98;;
6979;SDS011;3530;52.832;10.680;2022-12-29T05:35:37;1.80;;;1.80;;
6979;SDS011;3530;52.832;10.680;2022-12-29T05:38:23;2.15;;;2.05;;
6979;SDS011;3530;52.832;10.680;2022-12-29T05:41:08;1.95;;;1.95;;
6979;SDS011;3530;52.832;10.680;2022-12-29T05:43:54;2.03;;;1.92;;
6979;SDS011;3530;52.832;10.680;2022-12-29T05:46:40;2.00;;;1.90;;
6979;SDS011;3530;52.832;10.680;2022-12-29T05:49:25;2.08;;;1.98;;
6979;SDS011;3530;52.832;10.680;2022-12-29T05:52:11;4.43;;;2.40;;
6979;SDS011;3530;52.832;10.680;2022-12-29T05:54:57;2.20;;;2.10;;
6979;SDS011;3530;52.832;10.680;2022-12-29T05:57:42;2.22;;;2.13;;
6979;SDS011;3530;52.832;10.680;2022-12-29T06:00:28;3.10;;;2.50;;
6979;SDS011;3530;52.832;10.680;2022-12-29T06:03:14;2.85;;;2.30;;
6979;SDS011;3530;52.832;10.680;2022-12-29T06:05:59;2.03;;;1.95;;
6979;SDS011;3530;52.832;10.680;2022-12-29T06:08:45;2.00;;;1.90;;
6979;SDS011;3530;52.832;10.680;2022-12-29T06:11:30;2.15;;;2.03;;
6979;SDS011;3530;52.832;10.680;2022-12-29T06:14:16;2.80;;;1.83;;
6979;SDS011;3530;52.832;10.680;2022-12-29T06:17:02;1.95;;;1.80;;
6979;SDS011;3530;52.832;10.680;2022-12-29T06:19:47;1.95;;;1.83;;
6979;SDS011;3530;52.832;10.680;2022-12-29T06:22:33;1.85;;;1.75;;
6979;SDS011;3530;52.832;10.680;2022-12-29T06:25:19;1.85;;;1.85;;
6979;SDS011;3530;52.832;10.680;2022-12-29T06:28:04;2.38;;;2.25;;
6979;SDS011;3530;52.832;10.680;2022-12-29T06:30:50;3.00;;;2.38;;
6979;SDS011;3530;52.832;10.680;2022-12-29T06:33:36;4.00;;;2.58;;
6979;SDS011;3530;52.832;10.680;2022-12-29T06:36:22;4.15;;;2.63;;
6979;SDS011;3530;52.832;10.680;2022-12-29T06:39:09;7.32;;;3.42;;
6979;SDS011;3530;52.832;10.680;2022-12-29T06:41:55;2.65;;;2.45;;
6979;SDS011;3530;52.832;10.680;2022-12-29T06:44:41;6.45;;;2.95;;
6979;SDS011;3530;52.832;10.680;2022-12-29T06:47:26;3.40;;;2.17;;
6979;SDS011;3530;52.832;10.680;2022-12-29T06:50:12;2.08;;;1.83;;
6979;SDS011;3530;52.832;10.680;2022-12-29T06:52:58;1.98;;;1.88;;
6979;SDS011;3530;52.832;10.680;2022-12-29T06:55:43;2.47;;;2.28;;
6979;SDS011;3530;52.832;10.680;2022-12-29T06:58:29;2.05;;;1.95;;
6979;SDS011;3530;52.832;10.680;2022-12-29T07:01:15;2.03;;;1.92;;
6979;SDS011;3530;52.832;10.680;2022-12-29T07:04:00;3.05;;;1.52;;
6979;SDS011;3530;52.832;10.680;2022-12-29T07:06:46;2.10;;;1.92;;
6979;SDS011;3530;52.832;10.680;2022-12-29T07:09:31;2.00;;;1.90;;
6979;SDS011;3530;52.832;10.680;2022-12-29T07:12:17;2.25;;;2.15;;
6979;SDS011;3530;52.832;10.680;2022-12-29T07:15:03;2.08;;;1.98;;
6979;SDS011;3530;52.832;10.680;2022-12-29T07:17:49;1.98;;;1.88;;
6979;SDS011;3530;52.832;10.680;2022-12-29T07:20:37;1.90;;;1.80;;
6979;SDS011;3530;52.832;10.680;2022-12-29T07:23:23;2.03;;;1.90;;
6979;SDS011;3530;52.832;10.680;2022-12-29T07:26:10;1.75;;;1.65;;
6979;SDS011;3530;52.832;10.680;2022-12-29T07:28:57;1.83;;;1.73;;
6979;SDS011;3530;52.832;10.680;2022-12-29T07:31:43;1.50;;;1.50;;
6979;SDS011;3530;52.832;10.680;2022-12-29T07:34:28;1.80;;;1.80;;
6979;SDS011;3530;52.832;10.680;2022-12-29T07:37:14;1.85;;;1.60;;
6979;SDS011;3530;52.832;10.680;2022-12-29T07:40:01;1.80;;;1.70;;
6979;SDS011;3530;52.832;10.680;2022-12-29T07:42:48;1.85;;;1.50;;
6979;SDS011;3530;52.832;10.680;2022-12-29T07:45:34;1.52;;;1.42;;
6979;SDS011;3530;52.832;10.680;2022-12-29T07:48:20;1.60;;;1.60;;
6979;SDS011;3530;52.832;10.680;2022-12-29T07:51:05;1.90;;;1.60;;
6979;SDS011;3530;52.832;10.680;2022-12-29T07:53:51;1.33;;;1.33;;
6979;SDS011;3530;52.832;10.680;2022-12-29T07:56:37;2.22;;;2.00;;
6979;SDS011;3530;52.832;10.680;2022-12-29T07:59:23;1.27;;;1.27;;
6979;SDS011;3530;52.832;10.680;2022-12-29T08:02:12;1.50;;;1.50;;
6979;SDS011;3530;52.832;10.680;2022-12-29T08:05:00;1.77;;;1.67;;
6979;SDS011;3530;52.832;10.680;2022-12-29T08:07:46;1.40;;;1.30;;
6979;SDS011;3530;52.832;10.680;2022-12-29T08:10:32;1.65;;;1.65;;
6979;SDS011;3530;52.832;10.680;2022-12-29T08:13:17;1.27;;;1.27;;
6979;SDS011;3530;52.832;10.680;2022-12-29T08:16:03;1.10;;;1.10;;
6979;SDS011;3530;52.832;10.680;2022-12-29T08:18:49;1.40;;;1.30;;
6979;SDS011;3530;52.832;10.680;2022-12-29T08:21:34;1.30;;;1.30;;
6979;SDS011;3530;52.832;10.680;2022-12-29T08:24:20;1.20;;;1.20;;
6979;SDS011;3530;52.832;10.680;2022-12-29T08:27:06;1.20;;;1.20;;
6979;SDS011;3530;52.832;10.680;2022-12-29T08:29:51;1.40;;;1.17;;
6979;SDS011;3530;52.832;10.680;2022-12-29T08:32:37;1.13;;;1.13;;
6979;SDS011;3530;52.832;10.680;2022-12-29T08:35:23;2.20;;;1.30;;
6979;SDS011;3530;52.832;10.680;2022-12-29T08:38:08;1.10;;;1.10;;
6979;SDS011;3530;52.832;10.680;2022-12-29T08:40:56;1.10;;;1.10;;
6979;SDS011;3530;52.832;10.680;2022-12-29T08:43:45;1.38;;;1.10;;
6979;SDS011;3530;52.832;10.680;2022-12-29T08:46:32;1.52;;;1.15;;
6979;SDS011;3530;52.832;10.680;2022-12-29T08:49:17;1.35;;;1.25;;
6979;SDS011;3530;52.832;10.680;2022-12-29T08:52:03;1.10;;;1.10;;
6979;SDS011;3530;52.832;10.680;2022-12-29T08:54:49;1.50;;;1.40;;
6979;SDS011;3530;52.832;10.680;2022-12-29T08:57:34;1.10;;;1.10;;
6979;SDS011;3530;52.832;10.680;2022-12-29T09:00:20;1.10;;;1.10;;
6979;SDS011;3530;52.832;10.680;2022-12-29T09:03:06;1.20;;;1.20;;
6979;SDS011;3530;52.832;10.680;2022-12-29T09:05:52;1.25;;;1.25;;
6979;SDS011;3530;52.832;10.680;2022-12-29T09:08:38;1.15;;;1.15;;
6979;SDS011;3530;52.832;10.680;2022-12-29T09:11:24;1.73;;;1.73;;
6979;SDS011;3530;52.832;10.680;2022-12-29T09:14:10;1.33;;;1.30;;
6979;SDS011;3530;52.832;10.680;2022-12-29T09:16:56;1.30;;;1.30;;
6979;SDS011;3530;52.832;10.680;2022-12-29T09:20:00;1.48;;;1.48;;
6979;SDS011;3530;52.832;10.680;2022-12-29T09:22:46;1.30;;;1.30;;
6979;SDS011;3530;52.832;10.680;2022-12-29T09:25:33;1.25;;;1.25;;
6979;SDS011;3530;52.832;10.680;2022-12-29T09:28:19;2.65;;;1.70;;
6979;SDS011;3530;52.832;10.680;2022-12-29T09:31:05;1.50;;;1.40;;
6979;SDS011;3530;52.832;10.680;2022-12-29T09:33:51;1.40;;;1.40;;
6979;SDS011;3530;52.832;10.680;2022-12-29T09:36:36;1.52;;;1.42;;
6979;SDS011;3530;52.832;10.680;2022-12-29T09:39:22;1.20;;;1.20;;
6979;SDS011;3530;52.832;10.680;2022-12-29T09:42:18;1.20;;;1.20;;
6979;SDS011;3530;52.832;10.680;2022-12-29T09:45:09;1.30;;;1.30;;
6979;SDS011;3530;52.832;10.680;2022-12-29T09:47:59;2.10;;;1.50;;
6979;SDS011;3530;52.832;10.680;2022-12-29T09:50:47;1.30;;;1.30;;
6979;SDS011;3530;52.832;10.680;2022-12-29T09:53:39;1.52;;;1.52;;
6979;SDS011;3530;52.832;10.680;2022-12-29T09:56:27;1.50;;;1.50;;
6979;SDS011;3530;52.832;10.680;2022-12-29T10:02:37;1.42;;;1.40;;
6979;SDS011;3530;52.832;10.680;2022-12-29T10:05:27;1.50;;;1.50;;
6979;SDS011;3530;52.832;10.680;2022-12-29T10:17:41;1.40;;;1.40;;
6979;SDS011;3530;52.832;10.680;2022-12-29T10:23:50;2.40;;;1.50;;
6979;SDS011;3530;52.832;10.680;2022-12-29T10:26:40;2.10;;;1.50;;
6979;SDS011;3530;52.832;10.680;2022-12-29T10:29:32;2.35;;;1.70;;
6979;SDS011;3530;52.832;10.680;2022-12-29T10:32:27;3.10;;;1.40;;
6979;SDS011;3530;52.832;10.680;2022-12-29T10:35:17;2.40;;;1.30;;
6979;SDS011;3530;52.832;10.680;2022-12-29T10:41:11;1.30;;;1.20;;
6979;SDS011;3530;52.832;10.680;2022-12-29T10:44:00;2.17;;;1.83;;
6979;SDS011;3530;52.832;10.680;2022-12-29T10:46:54;1.70;;;1.60;;
6979;SDS011;3530;52.832;10.680;2022-12-29T10:49:42;2.10;;;1.60;;
6979;SDS011;3530;52.832;10.680;2022-12-29T10:52:28;3.75;;;1.40;;
6979;SDS011;3530;52.832;10.680;2022-12-29T10:55:19;1.58;;;1.48;;
6979;SDS011;3530;52.832;10.680;2022-12-29T10:58:10;1.50;;;1.40;;
6979;SDS011;3530;52.832;10.680;2022-12-29T11:00:57;2.47;;;1.40;;
6979;SDS011;3530;52.832;10.680;2022-12-29T11:03:50;1.55;;;1.50;;
6979;SDS011;3530;52.832;10.680;2022-12-29T11:06:44;1.42;;;1.38;;
6979;SDS011;3530;52.832;10.680;2022-12-29T11:09:31;4.30;;;1.70;;
6979;SDS011;3530;52.832;10.680;2022-12-29T11:12:24;1.63;;;1.60;;
6979;SDS011;3530;52.832;10.680;2022-12-29T11:15:14;1.58;;;1.48;;
6979;SDS011;3530;52.832;10.680;2022-12-29T11:18:00;3.20;;;1.70;;
6979;SDS011;3530;52.832;10.680;2022-12-29T11:20:46;1.58;;;1.52;;
6979;SDS011;3530;52.832;10.680;2022-12-29T11:26:22;1.65;;;1.55;;
6979;SDS011;3530;52.832;10.680;2022-12-29T11:29:21;2.67;;;2.08;;
6979;SDS011;3530;52.832;10.680;2022-12-29T11:32:27;1.92;;;1.83;;
6979;SDS011;3530;52.832;10.680;2022-12-29T11:35:30;1.80;;;1.70;;
6979;SDS011;3530;52.832;10.680;2022-12-29T11:38:20;1.70;;;1.60;;
6979;SDS011;3530;52.832;10.680;2022-12-29T11:41:13;3.95;;;2.80;;
6979;SDS011;3530;52.832;10.680;2022-12-29T11:44:05;2.25;;;2.05;;
6979;SDS011;3530;52.832;10.680;2022-12-29T11:46:51;3.15;;;2.88;;
6979;SDS011;3530;52.832;10.680;2022-12-29T11:49:37;5.18;;;3.00;;
6979;SDS011;3530;52.832;10.680;2022-12-29T11:52:23;3.22;;;2.83;;
6979;SDS011;3530;52.832;10.680;2022-12-29T11:55:18;3.75;;;2.60;;
6979;SDS011;3530;52.832;10.680;2022-12-29T11:58:06;2.40;;;2.30;;
6979;SDS011;3530;52.832;10.680;2022-12-29T12:00:52;4.18;;;2.42;;
6979;SDS011;3530;52.832;10.680;2022-12-29T12:03:38;3.00;;;2.63;;
6979;SDS011;3530;52.832;10.680;2022-12-29T12:06:27;6.95;;;5.78;;
6979;SDS011;3530;52.832;10.680;2022-12-29T12:09:28;5.13;;;3.85;;
6979;SDS011;3530;52.832;10.680;2022-12-29T12:12:22;3.25;;;2.95;;
6979;SDS011;3530;52.832;10.680;2022-12-29T12:15:16;2.58;;;2.47;;
6979;SDS011;3530;52.832;10.680;2022-12-29T12:18:09;3.00;;;2.80;;
6979;SDS011;3530;52.832;10.680;2022-12-29T12:21:05;2.60;;;2.28;;
6979;SDS011;3530;52.832;10.680;2022-12-29T12:26:58;2.65;;;2.45;;
6979;SDS011;3530;52.832;10.680;2022-12-29T12:30:10;2.22;;;2.13;;
6979;SDS011;3530;52.832;10.680;2022-12-29T12:33:15;4.68;;;1.75;;
6979;SDS011;3530;52.832;10.680;2022-12-29T12:36:29;2.22;;;2.08;;
6979;SDS011;3530;52.832;10.680;2022-12-29T12:39:34;2.10;;;2.00;;
6979;SDS011;3530;52.832;10.680;2022-12-29T12:45:34;2.50;;;2.30;;
6979;SDS011;3530;52.832;10.680;2022-12-29T12:48:36;2.47;;;1.75;;
6979;SDS011;3530;52.832;10.680;2022-12-29T12:57:38;5.80;;;4.60;;
6979;SDS011;3530;52.832;10.680;2022-12-29T13:00:32;8.77;;;6.90;;
6979;SDS011;3530;52.832;10.680;2022-12-29T13:09:46;9.45;;;5.57;;
6979;SDS011;3530;52.832;10.680;2022-12-29T13:13:05;5.45;;;3.88;;
6979;SDS011;3530;52.832;10.680;2022-12-29T13:19:41;10.68;;;6.82;;
6979;SDS011;3530;52.832;10.680;2022-12-29T13:25:37;8.30;;;4.85;;
6979;SDS011;3530;52.832;10.680;2022-12-29T13:28:36;13.55;;;7.38;;
6979;SDS011;3530;52.832;10.680;2022-12-29T13:31:33;11.45;;;6.97;;
6979;SDS011;3530;52.832;10.680;2022-12-29T13:37:20;5.13;;;4.57;;
6979;SDS011;3530;52.832;10.680;2022-12-29T13:40:13;14.18;;;6.43;;
6979;SDS011;3530;52.832;10.680;2022-12-29T13:43:01;29.45;;;15.77;;
6979;SDS011;3530;52.832;10.680;2022-12-29T13:45:49;22.40;;;11.85;;
6979;SDS011;3530;52.832;10.680;2022-12-29T13:49:01;22.27;;;11.35;;
6979;SDS011;3530;52.832;10.680;2022-12-29T13:51:51;15.30;;;8.30;;
6979;SDS011;3530;52.832;10.680;2022-12-29T14:01:15;5.10;;;3.10;;
6979;SDS011;3530;52.832;10.680;2022-12-29T14:04:03;5.45;;;3.45;;
6979;SDS011;3530;52.832;10.680;2022-12-29T14:07:13;4.03;;;2.60;;
6979;SDS011;3530;52.832;10.680;2022-12-29T14:10:00;6.40;;;2.60;;
6979;SDS011;3530;52.832;10.680;2022-12-29T14:12:46;2.28;;;2.13;;
6979;SDS011;3530;52.832;10.680;2022-12-29T14:15:34;2.65;;;2.45;;
6979;SDS011;3530;52.832;10.680;2022-12-29T14:18:26;2.95;;;2.13;;
6979;SDS011;3530;52.832;10.680;2022-12-29T14:27:42;2.38;;;2.17;;
6979;SDS011;3530;52.832;10.680;2022-12-29T14:30:48;2.20;;;2.10;;
6979;SDS011;3530;52.832;10.680;2022-12-29T14:33:35;1.98;;;1.88;;
6979;SDS011;3530;52.832;10.680;2022-12-29T14:36:21;2.50;;;1.90;;
6979;SDS011;3530;52.832;10.680;2022-12-29T14:39:54;1.85;;;1.38;;
6979;SDS011;3530;52.832;10.680;2022-12-29T14:42:22;1.70;;;1.70;;
6979;SDS011;3530;52.832;10.680;2022-12-29T14:45:20;2.03;;;1.85;;
6979;SDS011;3530;52.832;10.680;2022-12-29T14:51:17;2.47;;;2.28;;
6979;SDS011;3530;52.832;10.680;2022-12-29T14:57:39;3.50;;;2.80;;
6979;SDS011;3530;52.832;10.680;2022-12-29T15:00:30;2.92;;;2.47;;
6979;SDS011;3530;52.832;10.680;2022-12-29T15:03:19;2.58;;;2.38;;
6979;SDS011;3530;52.832;10.680;2022-12-29T15:06:18;3.25;;;2.90;;
6979;SDS011;3530;52.832;10.680;2022-12-29T15:09:12;3.15;;;2.95;;
6979;SDS011;3530;52.832;10.680;2022-12-29T15:12:15;3.15;;;2.85;;
6979;SDS011;3530;52.832;10.680;2022-12-29T15:15:58;4.82;;;3.22;;
6979;SDS011;3530;52.832;10.680;2022-12-29T15:18:23;6.00;;;3.08;;
6979;SDS011;3530;52.832;10.680;2022-12-29T15:21:11;2.35;;;2.22;;
6979;SDS011;3530;52.832;10.680;2022-12-29T15:23:58;4.68;;;3.45;;
6979;SDS011;3530;52.832;10.680;2022-12-29T15:26:45;3.65;;;2.95;;
6979;SDS011;3530;52.832;10.680;2022-12-29T15:29:39;3.45;;;3.13;;
6979;SDS011;3530;52.832;10.680;2022-12-29T15:32:27;5.10;;;4.10;;
6979;SDS011;3530;52.832;10.680;2022-12-29T15:35:24;28.98;;;11.07;;
6979;SDS011;3530;52.832;10.680;2022-12-29T15:38:24;10.18;;;4.72;;
6979;SDS011;3530;52.832;10.680;2022-12-29T15:44:45;4.72;;;4.10;;
6979;SDS011;3530;52.832;10.680;2022-12-29T15:47:31;7.93;;;4.22;;
6979;SDS011;3530;52.832;10.680;2022-12-29T15:50:25;5.38;;;2.95;;
6979;SDS011;3530;52.832;10.680;2022-12-29T15:53:18;8.23;;;3.63;;
6979;SDS011;3530;52.832;10.680;2022-12-29T15:56:11;11.52;;;4.55;;
6979;SDS011;3530;52.832;10.680;2022-12-29T15:58:57;7.43;;;4.72;;
6979;SDS011;3530;52.832;10.680;2022-12-29T16:01:42;5.60;;;4.10;;
6979;SDS011;3530;52.832;10.680;2022-12-29T16:04:31;8.52;;;5.20;;
6979;SDS011;3530;52.832;10.680;2022-12-29T16:07:22;12.00;;;5.25;;
6979;SDS011;3530;52.832;10.680;2022-12-29T16:10:21;11.45;;;5.40;;
6979;SDS011;3530;52.832;10.680;2022-12-29T16:13:15;11.77;;;5.72;;
6979;SDS011;3530;52.832;10.680;2022-12-29T16:16:09;5.90;;;4.13;;
6979;SDS011;3530;52.832;10.680;2022-12-29T16:19:00;9.05;;;5.03;;
6979;SDS011;3530;52.832;10.680;2022-12-29T16:21:49;9.73;;;5.90;;
6979;SDS011;3530;52.832;10.680;2022-12-29T16:24:34;7.68;;;4.53;;
6979;SDS011;3530;52.832;10.680;2022-12-29T16:27:25;6.85;;;4.53;;
6979;SDS011;3530;52.832;10.680;2022-12-29T16:30:24;8.45;;;4.95;;
6979;SDS011;3530;52.832;10.680;2022-12-29T16:33:32;6.55;;;3.78;;
6979;SDS011;3530;52.832;10.680;2022-12-29T16:36:21;4.65;;;3.47;;
6979;SDS011;3530;52.832;10.680;2022-12-29T16:39:19;8.50;;;4.32;;
6979;SDS011;3530;52.832;10.680;2022-12-29T16:48:55;5.53;;;4.65;;
6979;SDS011;3530;52.832;10.680;2022-12-29T16:51:41;13.50;;;8.68;;
6979;SDS011;3530;52.832;10.680;2022-12-29T16:54:34;11.82;;;6.45;;
6979;SDS011;3530;52.832;10.680;2022-12-29T16:57:31;23.90;;;11.27;;
6979;SDS011;3530;52.832;10.680;2022-12-29T17:00:23;9.07;;;5.70;;
6979;SDS011;3530;52.832;10.680;2022-12-29T17:03:09;5.80;;;3.92;;
6979;SDS011;3530;52.832;10.680;2022-12-29T17:05:56;4.28;;;3.85;;
6979;SDS011;3530;52.832;10.680;2022-12-29T17:08:42;7.13;;;3.90;;
6979;SDS011;3530;52.832;10.680;2022-12-29T17:14:52;6.82;;;3.80;;
6979;SDS011;3530;52.832;10.680;2022-12-29T17:17:45;2.65;;;2.42;;
6979;SDS011;3530;52.832;10.680;2022-12-29T17:20:31;7.85;;;2.55;;
6979;SDS011;3530;52.832;10.680;2022-12-29T17:23:17;4.45;;;3.33;;
6979;SDS011;3530;52.832;10.680;2022-12-29T17:26:03;2.47;;;2.28;;
6979;SDS011;3530;52.832;10.680;2022-12-29T17:28:48;4.93;;;2.30;;
6979;SDS011;3530;52.832;10.680;2022-12-29T17:31:34;2.90;;;2.47;;
6979;SDS011;3530;52.832;10.680;2022-12-29T17:34:20;7.70;;;2.80;;
6979;SDS011;3530;52.832;10.680;2022-12-29T17:37:14;2.45;;;2.25;;
6979;SDS011;3530;52.832;10.680;2022-12-29T17:40:16;5.40;;;2.63;;
6979;SDS011;3530;52.832;10.680;2022-12-29T17:43:03;2.30;;;1.95;;
6979;SDS011;3530;52.832;10.680;2022-12-29T17:45:52;3.53;;;2.28;;
6979;SDS011;3530;52.832;10.680;2022-12-29T17:48:38;2.75;;;2.55;;
6979;SDS011;3530;52.832;10.680;2022-12-29T17:51:24;2.60;;;2.42;;
6979;SDS011;3530;52.832;10.680;2022-12-29T17:54:15;4.05;;;2.58;;
6979;SDS011;3530;52.832;10.680;2022-12-29T17:57:03;2.83;;;2.63;;
6979;SDS011;3530;52.832;10.680;2022-12-29T17:59:48;7.43;;;2.25;;
6979;SDS011;3530;52.832;10.680;2022-12-29T18:02:34;3.70;;;2.60;;
6979;SDS011;3530;52.832;10.680;2022-12-29T18:05:21;2.40;;;2.13;;
6979;SDS011;3530;52.832;10.680;2022-12-29T18:08:07;3.47;;;2.00;;
6979;SDS011;3530;52.832;10.680;2022-12-29T18:10:54;5.28;;;3.08;;
6979;SDS011;3530;52.832;10.680;2022-12-29T18:13:40;2.58;;;2.38;;
6979;SDS011;3530;52.832;10.680;2022-12-29T18:16:26;18.05;;;12.85;;
6979;SDS011;3530;52.832;10.680;2022-12-29T18:19:12;11.88;;;6.82;;
6979;SDS011;3530;52.832;10.680;2022-12-29T18:21:58;5.43;;;3.28;;
6979;SDS011;3530;52.832;10.680;2022-12-29T18:24:43;7.93;;;4.22;;
6979;SDS011;3530;52.832;10.680;2022-12-29T18:27:29;5.20;;;4.47;;
6979;SDS011;3530;52.832;10.680;2022-12-29T18:30:15;5.68;;;3.08;;
6979;SDS011;3530;52.832;10.680;2022-12-29T18:33:01;5.18;;;4.20;;
6979;SDS011;3530;52.832;10.680;2022-12-29T18:35:51;10.98;;;9.05;;
6979;SDS011;3530;52.832;10.680;2022-12-29T18:38:39;5.10;;;4.55;;
6979;SDS011;3530;52.832;10.680;2022-12-29T18:41:26;7.15;;;3.40;;
6979;SDS011;3530;52.832;10.680;2022-12-29T18:44:15;3.92;;;3.50;;
6979;SDS011;3530;52.832;10.680;2022-12-29T18:47:01;6.40;;;4.45;;
6979;SDS011;3530;52.832;10.680;2022-12-29T18:49:47;4.35;;;4.00;;
6979;SDS011;3530;52.832;10.680;2022-12-29T18:52:32;5.32;;;4.32;;
6979;SDS011;3530;52.832;10.680;2022-12-29T18:55:19;7.50;;;3.42;;
6979;SDS011;3530;52.832;10.680;2022-12-29T18:58:07;3.55;;;3.33;;